In Rescue
 
Open Full Screen Window  High Contrast Mode
May 13, 2021 10:36 AM EDT
Weather Information
Wind Direction
  ---
Wind Speed
  00 kt (0 mph)
Wind Gust
  00 kt (0 mph)
Altimeter
30.41 in
Visibility
10 SM
Temperature
14° C
57° F
Dewpoint
00° C
32° F
Humidity
39%
1hr Rain Fall
00.00 in.
24hr Rain Fall
00.00 in.
Sky Condition
Clear
VFR

METAR KTTF 131436Z AUTO 00000KT 10SM CLR 14/00 A3041 RMK AO2 T01421002

FAA Disclaimer: The data displayed is for advisory purposes only and is not to be used for flight planning or operations.